sensor_id;sensor_type;location;lat;lon;timestamp;temperature;humidity
12006;DHT22;6062;47.294;12.182;2022-07-17T00:01:43;11.80;64.70
12006;DHT22;6062;47.294;12.182;2022-07-17T00:04:09;11.70;64.80
12006;DHT22;6062;47.294;12.182;2022-07-17T00:06:34;11.70;65.00
12006;DHT22;6062;47.294;12.182;2022-07-17T00:09:00;11.70;65.10
12006;DHT22;6062;47.294;12.182;2022-07-17T00:11:25;11.70;65.20
12006;DHT22;6062;47.294;12.182;2022-07-17T00:13:52;11.70;65.30
12006;DHT22;6062;47.294;12.182;2022-07-17T00:16:18;11.70;65.50
12006;DHT22;6062;47.294;12.182;2022-07-17T00:18:45;11.70;65.60
12006;DHT22;6062;47.294;12.182;2022-07-17T00:21:10;11.70;65.60
12006;DHT22;6062;47.294;12.182;2022-07-17T00:23:36;11.70;65.60
12006;DHT22;6062;47.294;12.182;2022-07-17T00:26:01;11.70;65.80
12006;DHT22;6062;47.294;12.182;2022-07-17T00:28:27;11.70;65.90
12006;DHT22;6062;47.294;12.182;2022-07-17T00:30:53;11.70;66.00
12006;DHT22;6062;47.294;12.182;2022-07-17T00:33:19;11.60;66.00
12006;DHT22;6062;47.294;12.182;2022-07-17T00:35:44;11.70;66.00
12006;DHT22;6062;47.294;12.182;2022-07-17T00:38:10;11.70;66.10
12006;DHT22;6062;47.294;12.182;2022-07-17T00:40:36;11.70;66.10
12006;DHT22;6062;47.294;12.182;2022-07-17T00:43:01;11.70;66.20
12006;DHT22;6062;47.294;12.182;2022-07-17T00:45:27;11.70;66.30
12006;DHT22;6062;47.294;12.182;2022-07-17T00:50:31;11.70;66.40
12006;DHT22;6062;47.294;12.182;2022-07-17T00:52:58;11.70;66.50
12006;DHT22;6062;47.294;12.182;2022-07-17T00:55:25;11.70;66.50
12006;DHT22;6062;47.294;12.182;2022-07-17T00:57:52;11.70;66.60
12006;DHT22;6062;47.294;12.182;2022-07-17T01:00:21;11.70;66.70
12006;DHT22;6062;47.294;12.182;2022-07-17T01:02:49;11.70;66.80
12006;DHT22;6062;47.294;12.182;2022-07-17T01:05:18;11.70;66.90
12006;DHT22;6062;47.294;12.182;2022-07-17T01:07:45;11.80;66.90
12006;DHT22;6062;47.294;12.182;2022-07-17T01:10:12;11.70;66.80
12006;DHT22;6062;47.294;12.182;2022-07-17T01:12:40;11.80;66.90
12006;DHT22;6062;47.294;12.182;2022-07-17T01:15:09;11.80;67.00
12006;DHT22;6062;47.294;12.182;2022-07-17T01:17:36;11.80;67.10
12006;DHT22;6062;47.294;12.182;2022-07-17T01:20:07;11.80;67.10
12006;DHT22;6062;47.294;12.182;2022-07-17T01:22:51;11.80;67.10
12006;DHT22;6062;47.294;12.182;2022-07-17T01:25:20;11.80;67.30
12006;DHT22;6062;47.294;12.182;2022-07-17T01:27:47;11.80;67.20
12006;DHT22;6062;47.294;12.182;2022-07-17T01:30:13;11.80;67.20
12006;DHT22;6062;47.294;12.182;2022-07-17T01:32:41;11.80;67.20
12006;DHT22;6062;47.294;12.182;2022-07-17T01:35:09;11.80;67.20
12006;DHT22;6062;47.294;12.182;2022-07-17T01:37:37;11.80;67.20
12006;DHT22;6062;47.294;12.182;2022-07-17T01:40:04;11.80;67.20
12006;DHT22;6062;47.294;12.182;2022-07-17T01:42:31;11.80;67.20
12006;DHT22;6062;47.294;12.182;2022-07-17T01:44:57;11.80;67.20
12006;DHT22;6062;47.294;12.182;2022-07-17T01:47:24;11.80;67.10
12006;DHT22;6062;47.294;12.182;2022-07-17T01:49:55;11.90;67.10
12006;DHT22;6062;47.294;12.182;2022-07-17T01:52:23;11.80;67.00
12006;DHT22;6062;47.294;12.182;2022-07-17T01:54:50;11.90;67.00
12006;DHT22;6062;47.294;12.182;2022-07-17T01:57:17;11.80;66.80
12006;DHT22;6062;47.294;12.182;2022-07-17T01:59:42;11.90;66.80
12006;DHT22;6062;47.294;12.182;2022-07-17T02:02:09;11.90;66.70
12006;DHT22;6062;47.294;12.182;2022-07-17T02:04:37;11.90;66.70
12006;DHT22;6062;47.294;12.182;2022-07-17T02:07:08;11.90;66.60
12006;DHT22;6062;47.294;12.182;2022-07-17T02:09:35;11.90;66.50
12006;DHT22;6062;47.294;12.182;2022-07-17T02:12:02;11.90;66.30
12006;DHT22;6062;47.294;12.182;2022-07-17T02:14:28;11.80;66.00
12006;DHT22;6062;47.294;12.182;2022-07-17T02:16:54;11.80;65.90
12006;DHT22;6062;47.294;12.182;2022-07-17T02:19:20;11.80;66.00
12006;DHT22;6062;47.294;12.182;2022-07-17T02:21:45;11.80;66.00
12006;DHT22;6062;47.294;12.182;2022-07-17T02:24:12;11.70;66.10
12006;DHT22;6062;47.294;12.182;2022-07-17T02:26:38;11.70;66.20
12006;DHT22;6062;47.294;12.182;2022-07-17T02:29:04;11.70;66.30
12006;DHT22;6062;47.294;12.182;2022-07-17T02:31:30;11.70;66.40
12006;DHT22;6062;47.294;12.182;2022-07-17T02:33:56;11.60;66.40
12006;DHT22;6062;47.294;12.182;2022-07-17T02:36:22;11.70;66.60
12006;DHT22;6062;47.294;12.182;2022-07-17T02:38:48;11.60;66.60
12006;DHT22;6062;47.294;12.182;2022-07-17T02:41:15;11.60;66.70
12006;DHT22;6062;47.294;12.182;2022-07-17T02:43:41;11.60;66.80
12006;DHT22;6062;47.294;12.182;2022-07-17T02:46:07;11.60;67.00
12006;DHT22;6062;47.294;12.182;2022-07-17T02:48:33;11.70;67.10
12006;DHT22;6062;47.294;12.182;2022-07-17T02:50:59;11.70;67.30
12006;DHT22;6062;47.294;12.182;2022-07-17T02:53:25;11.70;67.30
12006;DHT22;6062;47.294;12.182;2022-07-17T02:55:50;11.70;67.40
12006;DHT22;6062;47.294;12.182;2022-07-17T02:58:16;11.80;67.70
12006;DHT22;6062;47.294;12.182;2022-07-17T03:00:42;11.80;67.50
12006;DHT22;6062;47.294;12.182;2022-07-17T03:03:07;11.90;67.70
12006;DHT22;6062;47.294;12.182;2022-07-17T03:05:33;11.90;67.60
12006;DHT22;6062;47.294;12.182;2022-07-17T03:07:59;12.00;67.40
12006;DHT22;6062;47.294;12.182;2022-07-17T03:10:25;12.00;67.20
12006;DHT22;6062;47.294;12.182;2022-07-17T03:12:50;12.00;67.00
12006;DHT22;6062;47.294;12.182;2022-07-17T03:15:16;12.10;66.80
12006;DHT22;6062;47.294;12.182;2022-07-17T03:17:42;12.10;66.70
12006;DHT22;6062;47.294;12.182;2022-07-17T03:20:08;12.10;66.50
12006;DHT22;6062;47.294;12.182;2022-07-17T03:22:35;12.10;66.40
12006;DHT22;6062;47.294;12.182;2022-07-17T03:25:01;12.10;66.40
12006;DHT22;6062;47.294;12.182;2022-07-17T03:27:27;12.10;66.60
12006;DHT22;6062;47.294;12.182;2022-07-17T03:29:53;12.10;66.70
12006;DHT22;6062;47.294;12.182;2022-07-17T03:32:20;12.10;66.90
12006;DHT22;6062;47.294;12.182;2022-07-17T03:34:46;12.10;67.10
12006;DHT22;6062;47.294;12.182;2022-07-17T03:37:12;12.10;67.40
12006;DHT22;6062;47.294;12.182;2022-07-17T03:39:38;12.20;67.60
12006;DHT22;6062;47.294;12.182;2022-07-17T03:42:04;12.20;67.60
12006;DHT22;6062;47.294;12.182;2022-07-17T03:44:30;12.20;67.50
12006;DHT22;6062;47.294;12.182;2022-07-17T03:46:56;12.30;67.50
12006;DHT22;6062;47.294;12.182;2022-07-17T03:49:22;12.30;67.30
12006;DHT22;6062;47.294;12.182;2022-07-17T03:51:48;12.40;67.00
12006;DHT22;6062;47.294;12.182;2022-07-17T03:54:14;12.40;66.70
12006;DHT22;6062;47.294;12.182;2022-07-17T03:56:40;12.40;66.50
12006;DHT22;6062;47.294;12.182;2022-07-17T03:59:06;12.40;66.30
12006;DHT22;6062;47.294;12.182;2022-07-17T04:01:32;12.40;66.10
12006;DHT22;6062;47.294;12.182;2022-07-17T04:03:57;12.40;66.10
12006;DHT22;6062;47.294;12.182;2022-07-17T04:06:23;12.40;66.00
12006;DHT22;6062;47.294;12.182;2022-07-17T04:08:49;12.40;66.00
12006;DHT22;6062;47.294;12.182;2022-07-17T04:11:14;12.30;65.90
12006;DHT22;6062;47.294;12.182;2022-07-17T04:13:40;12.40;66.00
12006;DHT22;6062;47.294;12.182;2022-07-17T04:16:06;12.30;66.10
12006;DHT22;6062;47.294;12.182;2022-07-17T04:18:34;12.30;66.30
12006;DHT22;6062;47.294;12.182;2022-07-17T04:21:03;12.30;66.60
12006;DHT22;6062;47.294;12.182;2022-07-17T04:23:30;12.40;67.10
12006;DHT22;6062;47.294;12.182;2022-07-17T04:25:57;12.40;67.20
12006;DHT22;6062;47.294;12.182;2022-07-17T04:28:23;12.50;67.30
12006;DHT22;6062;47.294;12.182;2022-07-17T04:30:49;12.60;67.70
12006;DHT22;6062;47.294;12.182;2022-07-17T04:33:15;12.70;68.10
12006;DHT22;6062;47.294;12.182;2022-07-17T04:35:42;12.80;68.40
12006;DHT22;6062;47.294;12.182;2022-07-17T04:38:08;12.90;68.60
12006;DHT22;6062;47.294;12.182;2022-07-17T04:40:35;13.10;68.70
12006;DHT22;6062;47.294;12.182;2022-07-17T04:43:02;13.20;68.50
12006;DHT22;6062;47.294;12.182;2022-07-17T04:45:29;13.40;68.10
12006;DHT22;6062;47.294;12.182;2022-07-17T04:47:56;13.50;67.80
12006;DHT22;6062;47.294;12.182;2022-07-17T04:50:22;13.70;67.60
12006;DHT22;6062;47.294;12.182;2022-07-17T04:52:48;13.90;67.50
12006;DHT22;6062;47.294;12.182;2022-07-17T04:55:13;14.00;66.90
12006;DHT22;6062;47.294;12.182;2022-07-17T04:57:39;14.10;66.40
12006;DHT22;6062;47.294;12.182;2022-07-17T05:00:06;14.30;66.30
12006;DHT22;6062;47.294;12.182;2022-07-17T05:02:34;14.50;66.30
12006;DHT22;6062;47.294;12.182;2022-07-17T05:05:00;14.60;65.90
12006;DHT22;6062;47.294;12.182;2022-07-17T05:07:26;14.80;65.90
12006;DHT22;6062;47.294;12.182;2022-07-17T05:09:52;14.90;65.70
12006;DHT22;6062;47.294;12.182;2022-07-17T05:12:18;15.10;65.60
12006;DHT22;6062;47.294;12.182;2022-07-17T05:14:44;15.20;65.20
12006;DHT22;6062;47.294;12.182;2022-07-17T05:17:10;15.40;64.60
12006;DHT22;6062;47.294;12.182;2022-07-17T05:19:36;15.50;64.30
12006;DHT22;6062;47.294;12.182;2022-07-17T05:22:02;15.60;64.30
12006;DHT22;6062;47.294;12.182;2022-07-17T05:24:28;15.80;64.40
12006;DHT22;6062;47.294;12.182;2022-07-17T05:26:53;15.90;64.80
12006;DHT22;6062;47.294;12.182;2022-07-17T05:29:19;16.10;64.10
12006;DHT22;6062;47.294;12.182;2022-07-17T05:31:45;16.20;63.90
12006;DHT22;6062;47.294;12.182;2022-07-17T05:34:11;16.40;64.50
12006;DHT22;6062;47.294;12.182;2022-07-17T05:36:37;16.60;63.60
12006;DHT22;6062;47.294;12.182;2022-07-17T05:39:03;16.80;63.60
12006;DHT22;6062;47.294;12.182;2022-07-17T05:41:29;17.00;63.20
12006;DHT22;6062;47.294;12.182;2022-07-17T05:43:54;17.20;62.60
12006;DHT22;6062;47.294;12.182;2022-07-17T05:46:20;17.30;61.80
12006;DHT22;6062;47.294;12.182;2022-07-17T05:48:46;17.60;61.80
12006;DHT22;6062;47.294;12.182;2022-07-17T05:51:11;17.70;61.40
12006;DHT22;6062;47.294;12.182;2022-07-17T05:53:37;17.90;61.10
12006;DHT22;6062;47.294;12.182;2022-07-17T05:56:03;18.00;59.50
12006;DHT22;6062;47.294;12.182;2022-07-17T05:58:28;18.10;59.00
12006;DHT22;6062;47.294;12.182;2022-07-17T06:00:54;18.20;58.60
12006;DHT22;6062;47.294;12.182;2022-07-17T06:03:20;18.20;58.70
12006;DHT22;6062;47.294;12.182;2022-07-17T06:05:45;18.30;58.70
12006;DHT22;6062;47.294;12.182;2022-07-17T06:08:11;18.40;58.80
12006;DHT22;6062;47.294;12.182;2022-07-17T06:10:37;18.50;58.80
12006;DHT22;6062;47.294;12.182;2022-07-17T06:13:06;18.60;58.70
12006;DHT22;6062;47.294;12.182;2022-07-17T06:15:32;18.70;58.40
12006;DHT22;6062;47.294;12.182;2022-07-17T06:18:02;18.80;58.20
12006;DHT22;6062;47.294;12.182;2022-07-17T06:20:28;18.90;57.70
12006;DHT22;6062;47.294;12.182;2022-07-17T06:22:54;19.10;57.90
12006;DHT22;6062;47.294;12.182;2022-07-17T06:25:20;19.20;57.90
12006;DHT22;6062;47.294;12.182;2022-07-17T06:27:46;19.40;57.00
12006;DHT22;6062;47.294;12.182;2022-07-17T06:30:13;19.50;56.10
12006;DHT22;6062;47.294;12.182;2022-07-17T06:32:40;19.60;56.30
12006;DHT22;6062;47.294;12.182;2022-07-17T06:35:07;19.70;55.90
12006;DHT22;6062;47.294;12.182;2022-07-17T06:37:34;19.80;55.50
12006;DHT22;6062;47.294;12.182;2022-07-17T06:40:01;19.90;54.80
12006;DHT22;6062;47.294;12.182;2022-07-17T06:42:27;20.00;54.40
12006;DHT22;6062;47.294;12.182;2022-07-17T06:44:53;20.10;54.00
12006;DHT22;6062;47.294;12.182;2022-07-17T06:47:19;20.10;53.50
12006;DHT22;6062;47.294;12.182;2022-07-17T06:49:44;20.20;53.40
12006;DHT22;6062;47.294;12.182;2022-07-17T06:52:10;20.20;53.10
12006;DHT22;6062;47.294;12.182;2022-07-17T06:54:36;20.20;52.40
12006;DHT22;6062;47.294;12.182;2022-07-17T06:57:02;20.20;52.30
12006;DHT22;6062;47.294;12.182;2022-07-17T06:59:28;20.10;52.30
12006;DHT22;6062;47.294;12.182;2022-07-17T07:01:55;20.10;52.60
12006;DHT22;6062;47.294;12.182;2022-07-17T07:04:21;20.10;52.70
12006;DHT22;6062;47.294;12.182;2022-07-17T07:06:46;20.10;52.40
12006;DHT22;6062;47.294;12.182;2022-07-17T07:09:12;20.20;53.00
12006;DHT22;6062;47.294;12.182;2022-07-17T07:11:38;20.20;52.60
12006;DHT22;6062;47.294;12.182;2022-07-17T07:14:05;20.30;52.20
12006;DHT22;6062;47.294;12.182;2022-07-17T07:16:33;20.30;51.90
12006;DHT22;6062;47.294;12.182;2022-07-17T07:18:59;20.40;51.60
12006;DHT22;6062;47.294;12.182;2022-07-17T07:21:25;20.40;51.80
12006;DHT22;6062;47.294;12.182;2022-07-17T07:23:54;20.50;51.40
12006;DHT22;6062;47.294;12.182;2022-07-17T07:26:20;20.50;51.50
12006;DHT22;6062;47.294;12.182;2022-07-17T07:28:46;20.50;50.80
12006;DHT22;6062;47.294;12.182;2022-07-17T07:31:12;20.60;50.60
12006;DHT22;6062;47.294;12.182;2022-07-17T07:33:38;20.60;51.20
12006;DHT22;6062;47.294;12.182;2022-07-17T07:36:05;20.60;50.40
12006;DHT22;6062;47.294;12.182;2022-07-17T07:38:34;20.60;50.50
12006;DHT22;6062;47.294;12.182;2022-07-17T07:40:59;20.60;50.10
12006;DHT22;6062;47.294;12.182;2022-07-17T07:43:25;20.50;50.50
12006;DHT22;6062;47.294;12.182;2022-07-17T07:45:51;20.50;50.60
12006;DHT22;6062;47.294;12.182;2022-07-17T07:48:17;20.50;50.80
12006;DHT22;6062;47.294;12.182;2022-07-17T07:50:42;20.40;51.40
12006;DHT22;6062;47.294;12.182;2022-07-17T07:53:08;20.40;50.90
12006;DHT22;6062;47.294;12.182;2022-07-17T07:55:34;20.40;50.90
12006;DHT22;6062;47.294;12.182;2022-07-17T07:58:10;20.50;50.70
12006;DHT22;6062;47.294;12.182;2022-07-17T08:00:43;20.50;50.80
12006;DHT22;6062;47.294;12.182;2022-07-17T08:03:09;20.60;51.00
12006;DHT22;6062;47.294;12.182;2022-07-17T08:05:36;20.60;51.50
12006;DHT22;6062;47.294;12.182;2022-07-17T08:08:01;20.70;50.60
12006;DHT22;6062;47.294;12.182;2022-07-17T08:10:28;20.60;51.10
12006;DHT22;6062;47.294;12.182;2022-07-17T08:12:54;20.60;51.00
12006;DHT22;6062;47.294;12.182;2022-07-17T08:15:21;20.60;50.40
12006;DHT22;6062;47.294;12.182;2022-07-17T08:17:50;20.70;50.40
12006;DHT22;6062;47.294;12.182;2022-07-17T08:20:19;20.70;51.40
12006;DHT22;6062;47.294;12.182;2022-07-17T08:22:46;20.60;51.40
12006;DHT22;6062;47.294;12.182;2022-07-17T08:25:13;20.60;51.50
12006;DHT22;6062;47.294;12.182;2022-07-17T08:27:41;20.70;50.90
12006;DHT22;6062;47.294;12.182;2022-07-17T08:30:11;20.80;50.80
12006;DHT22;6062;47.294;12.182;2022-07-17T08:32:38;20.80;50.80
12006;DHT22;6062;47.294;12.182;2022-07-17T08:35:04;20.90;50.80
12006;DHT22;6062;47.294;12.182;2022-07-17T08:37:30;20.80;50.40
12006;DHT22;6062;47.294;12.182;2022-07-17T08:40:07;20.80;50.50
12006;DHT22;6062;47.294;12.182;2022-07-17T08:42:33;20.80;51.20
12006;DHT22;6062;47.294;12.182;2022-07-17T08:45:08;20.80;51.90
12006;DHT22;6062;47.294;12.182;2022-07-17T08:47:36;21.00;52.80
12006;DHT22;6062;47.294;12.182;2022-07-17T08:50:03;21.20;53.20
12006;DHT22;6062;47.294;12.182;2022-07-17T08:52:29;21.50;52.30
12006;DHT22;6062;47.294;12.182;2022-07-17T08:54:55;21.90;52.40
12006;DHT22;6062;47.294;12.182;2022-07-17T08:57:22;22.30;51.90
12006;DHT22;6062;47.294;12.182;2022-07-17T08:59:48;22.70;50.80
12006;DHT22;6062;47.294;12.182;2022-07-17T09:02:13;23.10;49.90
12006;DHT22;6062;47.294;12.182;2022-07-17T09:04:40;23.40;49.40
12006;DHT22;6062;47.294;12.182;2022-07-17T09:07:06;23.70;48.30
12006;DHT22;6062;47.294;12.182;2022-07-17T09:09:33;24.00;47.90
12006;DHT22;6062;47.294;12.182;2022-07-17T09:12:00;24.20;47.30
12006;DHT22;6062;47.294;12.182;2022-07-17T09:14:41;24.30;47.30
12006;DHT22;6062;47.294;12.182;2022-07-17T09:17:08;24.40;46.30
12006;DHT22;6062;47.294;12.182;2022-07-17T09:19:39;24.40;45.00
12006;DHT22;6062;47.294;12.182;2022-07-17T09:22:24;24.40;45.70
12006;DHT22;6062;47.294;12.182;2022-07-17T09:24:52;24.40;45.40
12006;DHT22;6062;47.294;12.182;2022-07-17T09:30:03;24.50;46.30
12006;DHT22;6062;47.294;12.182;2022-07-17T09:32:36;24.70;46.00
12006;DHT22;6062;47.294;12.182;2022-07-17T09:35:06;24.90;45.50
12006;DHT22;6062;47.294;12.182;2022-07-17T09:37:35;25.00;44.70
12006;DHT22;6062;47.294;12.182;2022-07-17T09:40:08;25.00;44.50
12006;DHT22;6062;47.294;12.182;2022-07-17T09:42:35;25.00;44.10
12006;DHT22;6062;47.294;12.182;2022-07-17T09:45:08;24.90;43.60
12006;DHT22;6062;47.294;12.182;2022-07-17T09:47:37;24.70;43.90
12006;DHT22;6062;47.294;12.182;2022-07-17T09:50:06;24.50;44.00
12006;DHT22;6062;47.294;12.182;2022-07-17T09:52:35;24.20;44.80
12006;DHT22;6062;47.294;12.182;2022-07-17T09:55:03;24.00;45.60
12006;DHT22;6062;47.294;12.182;2022-07-17T09:57:32;24.00;46.40
12006;DHT22;6062;47.294;12.182;2022-07-17T10:00:02;24.00;45.70
12006;DHT22;6062;47.294;12.182;2022-07-17T10:02:40;24.10;45.20
12006;DHT22;6062;47.294;12.182;2022-07-17T10:05:10;24.30;45.20
12006;DHT22;6062;47.294;12.182;2022-07-17T10:07:40;24.40;44.50
12006;DHT22;6062;47.294;12.182;2022-07-17T10:10:08;24.50;43.50
12006;DHT22;6062;47.294;12.182;2022-07-17T10:12:39;24.70;42.80
12006;DHT22;6062;47.294;12.182;2022-07-17T10:15:07;24.80;42.90
12006;DHT22;6062;47.294;12.182;2022-07-17T10:17:34;24.90;43.20
12006;DHT22;6062;47.294;12.182;2022-07-17T10:20:00;25.00;43.30
12006;DHT22;6062;47.294;12.182;2022-07-17T10:22:26;25.10;42.80
12006;DHT22;6062;47.294;12.182;2022-07-17T10:24:56;25.20;42.40
12006;DHT22;6062;47.294;12.182;2022-07-17T10:27:26;25.30;42.20
12006;DHT22;6062;47.294;12.182;2022-07-17T10:30:05;25.40;42.50
12006;DHT22;6062;47.294;12.182;2022-07-17T10:32:32;25.50;42.10
12006;DHT22;6062;47.294;12.182;2022-07-17T10:35:07;25.60;41.90
12006;DHT22;6062;47.294;12.182;2022-07-17T10:40:19;25.70;41.80
12006;DHT22;6062;47.294;12.182;2022-07-17T10:42:55;25.80;41.70
12006;DHT22;6062;47.294;12.182;2022-07-17T10:48:01;25.80;42.20
12006;DHT22;6062;47.294;12.182;2022-07-17T10:50:36;25.80;41.50
12006;DHT22;6062;47.294;12.182;2022-07-17T10:55:49;25.70;41.00
12006;DHT22;6062;47.294;12.182;2022-07-17T10:58:29;25.40;40.90
12006;DHT22;6062;47.294;12.182;2022-07-17T11:01:03;25.10;41.80
12006;DHT22;6062;47.294;12.182;2022-07-17T11:08:50;24.00;42.90
12006;DHT22;6062;47.294;12.182;2022-07-17T11:11:19;23.60;43.30
12006;DHT22;6062;47.294;12.182;2022-07-17T11:13:48;23.30;44.10
12006;DHT22;6062;47.294;12.182;2022-07-17T11:16:28;23.10;43.80
12006;DHT22;6062;47.294;12.182;2022-07-17T11:18:55;22.80;45.30
12006;DHT22;6062;47.294;12.182;2022-07-17T11:21:21;22.60;46.00
12006;DHT22;6062;47.294;12.182;2022-07-17T11:23:52;22.50;47.00
12006;DHT22;6062;47.294;12.182;2022-07-17T11:26:20;22.50;47.90
12006;DHT22;6062;47.294;12.182;2022-07-17T11:28:48;22.40;47.80
12006;DHT22;6062;47.294;12.182;2022-07-17T11:31:25;22.50;48.10
12006;DHT22;6062;47.294;12.182;2022-07-17T11:33:58;22.50;48.00
12006;DHT22;6062;47.294;12.182;2022-07-17T11:38:59;22.60;48.40
12006;DHT22;6062;47.294;12.182;2022-07-17T11:41:51;22.60;47.70
12006;DHT22;6062;47.294;12.182;2022-07-17T11:44:20;22.50;47.90
12006;DHT22;6062;47.294;12.182;2022-07-17T11:46:48;22.50;48.20
12006;DHT22;6062;47.294;12.182;2022-07-17T11:49:37;22.50;48.60
12006;DHT22;6062;47.294;12.182;2022-07-17T11:54:45;22.50;47.60
12006;DHT22;6062;47.294;12.182;2022-07-17T11:57:11;22.50;47.80
12006;DHT22;6062;47.294;12.182;2022-07-17T11:59:37;22.40;47.30
12006;DHT22;6062;47.294;12.182;2022-07-17T12:02:08;22.30;47.90
12006;DHT22;6062;47.294;12.182;2022-07-17T12:04:35;22.10;48.20
12006;DHT22;6062;47.294;12.182;2022-07-17T12:07:03;22.10;48.40
12006;DHT22;6062;47.294;12.182;2022-07-17T12:09:31;21.90;48.80
12006;DHT22;6062;47.294;12.182;2022-07-17T12:12:00;21.90;49.00
12006;DHT22;6062;47.294;12.182;2022-07-17T12:14:27;21.70;48.90
12006;DHT22;6062;47.294;12.182;2022-07-17T12:16:56;21.70;48.80
12006;DHT22;6062;47.294;12.182;2022-07-17T12:19:25;21.50;49.10
12006;DHT22;6062;47.294;12.182;2022-07-17T12:22:00;21.40;50.10
12006;DHT22;6062;47.294;12.182;2022-07-17T12:24:33;21.40;50.30
12006;DHT22;6062;47.294;12.182;2022-07-17T12:27:06;21.30;50.30
12006;DHT22;6062;47.294;12.182;2022-07-17T12:29:33;21.30;50.40
12006;DHT22;6062;47.294;12.182;2022-07-17T12:32:10;21.30;50.30
12006;DHT22;6062;47.294;12.182;2022-07-17T12:34:43;21.20;50.70
12006;DHT22;6062;47.294;12.182;2022-07-17T12:37:15;21.10;50.60
12006;DHT22;6062;47.294;12.182;2022-07-17T12:39:44;21.00;50.40
12006;DHT22;6062;47.294;12.182;2022-07-17T12:42:11;20.90;49.50
12006;DHT22;6062;47.294;12.182;2022-07-17T12:44:37;20.80;50.00
12006;DHT22;6062;47.294;12.182;2022-07-17T12:47:07;20.70;50.80
12006;DHT22;6062;47.294;12.182;2022-07-17T12:49:33;20.60;51.10
12006;DHT22;6062;47.294;12.182;2022-07-17T12:52:00;20.50;51.40
12006;DHT22;6062;47.294;12.182;2022-07-17T12:54:26;20.40;51.30
12006;DHT22;6062;47.294;12.182;2022-07-17T12:56:52;20.30;51.50
12006;DHT22;6062;47.294;12.182;2022-07-17T12:59:19;20.20;51.90
12006;DHT22;6062;47.294;12.182;2022-07-17T13:01:46;20.20;52.30
12006;DHT22;6062;47.294;12.182;2022-07-17T13:04:13;20.10;52.40
12006;DHT22;6062;47.294;12.182;2022-07-17T13:06:39;20.10;52.30
12006;DHT22;6062;47.294;12.182;2022-07-17T13:09:05;20.00;52.60
12006;DHT22;6062;47.294;12.182;2022-07-17T13:11:31;20.00;53.00
12006;DHT22;6062;47.294;12.182;2022-07-17T13:13:57;20.00;53.00
12006;DHT22;6062;47.294;12.182;2022-07-17T13:16:24;20.00;53.40
12006;DHT22;6062;47.294;12.182;2022-07-17T13:18:53;20.10;53.50
12006;DHT22;6062;47.294;12.182;2022-07-17T13:21:19;20.10;53.30
12006;DHT22;6062;47.294;12.182;2022-07-17T13:23:44;20.20;52.80
12006;DHT22;6062;47.294;12.182;2022-07-17T13:26:10;20.20;53.20
12006;DHT22;6062;47.294;12.182;2022-07-17T13:28:36;20.20;53.40
12006;DHT22;6062;47.294;12.182;2022-07-17T13:31:02;20.30;53.60
12006;DHT22;6062;47.294;12.182;2022-07-17T13:33:30;20.40;53.70
12006;DHT22;6062;47.294;12.182;2022-07-17T13:35:56;20.50;53.60
12006;DHT22;6062;47.294;12.182;2022-07-17T13:38:22;20.60;53.30
12006;DHT22;6062;47.294;12.182;2022-07-17T13:40:47;20.70;53.20
12006;DHT22;6062;47.294;12.182;2022-07-17T13:43:15;20.80;52.80
12006;DHT22;6062;47.294;12.182;2022-07-17T13:45:41;20.90;52.80
12006;DHT22;6062;47.294;12.182;2022-07-17T13:48:07;21.00;52.90
12006;DHT22;6062;47.294;12.182;2022-07-17T13:50:32;21.20;52.30
12006;DHT22;6062;47.294;12.182;2022-07-17T13:53:00;21.10;52.00
12006;DHT22;6062;47.294;12.182;2022-07-17T13:55:26;21.20;52.30
12006;DHT22;6062;47.294;12.182;2022-07-17T13:57:52;21.30;51.90
12006;DHT22;6062;47.294;12.182;2022-07-17T14:00:18;21.30;51.10
12006;DHT22;6062;47.294;12.182;2022-07-17T14:02:44;21.30;51.30
12006;DHT22;6062;47.294;12.182;2022-07-17T14:05:10;21.30;51.70
12006;DHT22;6062;47.294;12.182;2022-07-17T14:07:36;21.30;51.70
12006;DHT22;6062;47.294;12.182;2022-07-17T14:10:03;21.30;51.50
12006;DHT22;6062;47.294;12.182;2022-07-17T14:12:29;21.30;51.20
12006;DHT22;6062;47.294;12.182;2022-07-17T14:14:54;21.30;50.90
12006;DHT22;6062;47.294;12.182;2022-07-17T14:17:20;21.30;51.00
12006;DHT22;6062;47.294;12.182;2022-07-17T14:19:46;21.30;51.10
12006;DHT22;6062;47.294;12.182;2022-07-17T14:22:12;21.30;51.20
12006;DHT22;6062;47.294;12.182;2022-07-17T14:24:38;21.30;51.30
12006;DHT22;6062;47.294;12.182;2022-07-17T14:27:04;21.30;51.30
12006;DHT22;6062;47.294;12.182;2022-07-17T14:29:30;21.30;50.90
12006;DHT22;6062;47.294;12.182;2022-07-17T14:31:56;21.20;51.10
12006;DHT22;6062;47.294;12.182;2022-07-17T14:34:22;21.20;51.10
12006;DHT22;6062;47.294;12.182;2022-07-17T14:36:48;21.10;51.10
12006;DHT22;6062;47.294;12.182;2022-07-17T14:39:15;21.10;51.50
12006;DHT22;6062;47.294;12.182;2022-07-17T14:41:41;21.10;51.50
12006;DHT22;6062;47.294;12.182;2022-07-17T14:44:10;21.00;52.30
12006;DHT22;6062;47.294;12.182;2022-07-17T14:46:36;21.00;51.90
12006;DHT22;6062;47.294;12.182;2022-07-17T14:49:02;20.90;52.00
12006;DHT22;6062;47.294;12.182;2022-07-17T14:51:28;20.90;52.30
12006;DHT22;6062;47.294;12.182;2022-07-17T14:53:53;20.90;52.40
12006;DHT22;6062;47.294;12.182;2022-07-17T14:56:19;20.90;52.40
12006;DHT22;6062;47.294;12.182;2022-07-17T14:58:45;20.90;52.60
12006;DHT22;6062;47.294;12.182;2022-07-17T15:01:11;21.00;52.30
12006;DHT22;6062;47.294;12.182;2022-07-17T15:03:36;21.00;52.90
12006;DHT22;6062;47.294;12.182;2022-07-17T15:06:02;21.00;52.70
12006;DHT22;6062;47.294;12.182;2022-07-17T15:08:28;21.00;52.40
12006;DHT22;6062;47.294;12.182;2022-07-17T15:10:54;21.10;52.20
12006;DHT22;6062;47.294;12.182;2022-07-17T15:13:20;21.10;52.50
12006;DHT22;6062;47.294;12.182;2022-07-17T15:15:45;21.10;52.90
12006;DHT22;6062;47.294;12.182;2022-07-17T15:18:11;21.10;52.80
12006;DHT22;6062;47.294;12.182;2022-07-17T15:20:37;21.10;52.80
12006;DHT22;6062;47.294;12.182;2022-07-17T15:23:03;21.10;53.00
12006;DHT22;6062;47.294;12.182;2022-07-17T15:25:28;21.10;52.90
12006;DHT22;6062;47.294;12.182;2022-07-17T15:27:54;21.10;52.70
12006;DHT22;6062;47.294;12.182;2022-07-17T15:30:20;21.10;52.90
12006;DHT22;6062;47.294;12.182;2022-07-17T15:32:46;21.10;52.80
12006;DHT22;6062;47.294;12.182;2022-07-17T15:35:11;21.20;52.70
12006;DHT22;6062;47.294;12.182;2022-07-17T15:37:37;21.20;52.50
12006;DHT22;6062;47.294;12.182;2022-07-17T15:40:04;21.30;52.70
12006;DHT22;6062;47.294;12.182;2022-07-17T15:42:30;21.30;52.80
12006;DHT22;6062;47.294;12.182;2022-07-17T15:44:56;21.30;52.30
12006;DHT22;6062;47.294;12.182;2022-07-17T15:47:22;21.40;52.60
12006;DHT22;6062;47.294;12.182;2022-07-17T15:49:47;21.40;52.40
12006;DHT22;6062;47.294;12.182;2022-07-17T15:52:13;21.50;52.10
12006;DHT22;6062;47.294;12.182;2022-07-17T15:54:39;21.50;51.90